Time;durP1;ratioP1;P1;durP2;ratioP2;P2;SDS_P1;SDS_P2;PMS_P1;PMS_P2;Temp;Humidity;BMP_temperature;BMP_pressure;BME280_temperature;BME280_humidity;BME280_pressure;Samples;Min_cycle;Max_cycle;Signal;HPM_P1;HPM_P2
2021/03/31 00:03:37;;;;;;;;;;;10.50;97.70;;;;;;13125812;22;19931;-87
2021/03/31 00:08:39;;;;;;;;;;;10.60;98.10;;;;;;13152687;22;19953;-87
2021/03/31 00:13:40;;;;;;;;;;;10.10;99.90;;;;;;13152308;22;19985;-87
2021/03/31 00:18:41;;;;;;;;;;;10.00;99.90;;;;;;13126077;22;20247;-87
2021/03/31 00:23:44;;;;;;;;;;;10.60;99.90;;;;;;13152804;22;19921;-87
2021/03/31 00:28:45;;;;;;;;;;;9.40;99.90;;;;;;13152098;22;20216;-87
2021/03/31 00:33:46;;;;;;;;;;;9.50;99.90;;;;;;13126379;22;20317;-87
2021/03/31 00:38:48;;;;;;;;;;;9.90;99.90;;;;;;13125999;22;20303;-87
2021/03/31 00:43:49;;;;;;;;;;;8.90;99.90;;;;;;13152532;22;19996;-87
2021/03/31 00:48:50;;;;;;;;;;;8.80;99.90;;;;;;13181895;22;19964;-88
2021/03/31 00:53:51;;;;;;;;;;;8.80;99.90;;;;;;13130095;22;20410;-88
2021/03/31 00:58:53;;;;;;;;;;;8.70;99.90;;;;;;13156352;22;19918;-87
2021/03/31 01:03:54;;;;;;;;;;;8.70;99.90;;;;;;13183485;22;19932;-87
2021/03/31 01:08:55;;;;;;;;;;;8.40;99.90;;;;;;13130126;22;19918;-87
2021/03/31 01:14:15;;;;;;;;;;;8.20;99.90;;;;;;13129352;22;20357;-87
2021/03/31 01:19:17;;;;;;;;;;;8.10;99.90;;;;;;13183821;22;19997;-87
2021/03/31 01:24:45;;;;;;;;;;;8.00;99.90;;;;;;13155613;22;20020;-87
2021/03/31 01:29:52;;;;;;;;;;;7.90;99.90;;;;;;13087805;22;19918;-87
2021/03/31 01:34:54;;;;;;;;;;;7.80;99.90;;;;;;13155576;22;19923;-88
2021/03/31 01:39:56;;;;;;;;;;;8.60;99.90;;;;;;13154549;22;20319;-87
2021/03/31 01:44:59;;;;;;;;;;;7.60;99.90;;;;;;13155386;22;19924;-87
2021/03/31 01:50:01;;;;;;;;;;;8.20;99.90;;;;;;13182916;22;19991;-87
2021/03/31 01:55:04;;;;;;;;;;;7.50;99.90;;;;;;13154286;22;19918;-88
2021/03/31 02:00:06;;;;;;;;;;;7.50;99.90;;;;;;13154133;22;19957;-87
2021/03/31 02:05:09;;;;;;;;;;;7.60;99.90;;;;;;13128041;22;19919;-88
2021/03/31 02:10:11;;;;;;;;;;;7.40;99.90;;;;;;13127929;22;20004;-87
2021/03/31 02:15:15;;;;;;;;;;;7.30;99.90;;;;;;13154631;22;19949;-87
2021/03/31 02:20:19;;;;;;;;;;;7.30;99.90;;;;;;13182212;22;19925;-88
2021/03/31 02:25:20;;;;;;;;;;;7.10;99.90;;;;;;13181542;22;20319;-88
2021/03/31 02:30:23;;;;;;;;;;;7.90;99.90;;;;;;13153533;22;19925;-88
2021/03/31 02:35:24;;;;;;;;;;;7.00;99.90;;;;;;13153339;22;20339;-88
2021/03/31 02:40:27;;;;;;;;;;;6.70;99.90;;;;;;13153118;22;20005;-88
2021/03/31 02:45:29;;;;;;;;;;;6.80;99.90;;;;;;13153198;22;19956;-88
2021/03/31 02:50:31;;;;;;;;;;;7.80;99.90;;;;;;13128559;22;19925;-88
2021/03/31 02:55:32;;;;;;;;;;;6.80;99.90;;;;;;13154015;22;19953;-88
2021/03/31 03:00:34;;;;;;;;;;;6.40;99.90;;;;;;13153862;22;19922;-88
2021/03/31 03:05:35;;;;;;;;;;;6.30;99.90;;;;;;13126578;22;19942;-87
2021/03/31 03:10:38;;;;;;;;;;;6.30;99.90;;;;;;13127740;22;20246;-88
2021/03/31 03:15:40;;;;;;;;;;;6.60;99.90;;;;;;13153663;22;19993;-88
2021/03/31 03:20:41;;;;;;;;;;;6.30;99.90;;;;;;13152665;22;19922;-88
2021/03/31 03:25:43;;;;;;;;;;;7.30;99.90;;;;;;13154377;22;19993;-88
2021/03/31 03:30:45;;;;;;;;;;;6.00;99.90;;;;;;13153571;22;19922;-88
2021/03/31 03:35:46;;;;;;;;;;;8.20;99.90;;;;;;13127361;22;19922;-88
2021/03/31 03:40:47;;;;;;;;;;;6.00;99.90;;;;;;13152421;22;20243;-88
2021/03/31 03:45:50;;;;;;;;;;;6.80;99.90;;;;;;13180912;22;19981;-88
2021/03/31 03:50:52;;;;;;;;;;;6.10;99.90;;;;;;13152496;22;20331;-88
2021/03/31 03:55:54;;;;;;;;;;;5.80;99.90;;;;;;13152287;22;19925;-87
2021/03/31 04:00:56;;;;;;;;;;;8.10;99.90;;;;;;13151922;22;19918;-88
2021/03/31 04:05:57;;;;;;;;;;;5.70;99.90;;;;;;13152020;22;19993;-88
2021/03/31 04:11:01;;;;;;;;;;;5.70;99.90;;;;;;13153284;22;19922;-88
2021/03/31 04:16:05;;;;;;;;;;;7.70;99.90;;;;;;13180859;22;19922;-88
2021/03/31 04:21:07;;;;;;;;;;;5.80;99.90;;;;;;13151940;22;19993;-87
2021/03/31 04:26:09;;;;;;;;;;;5.60;99.90;;;;;;13156206;22;19926;-88
2021/03/31 04:31:10;;;;;;;;;;;5.60;99.90;;;;;;13156129;22;20296;-88
2021/03/31 04:36:11;;;;;;;;;;;5.60;99.90;;;;;;13156493;22;20008;-88
2021/03/31 04:41:13;;;;;;;;;;;5.50;99.90;;;;;;13130669;22;19918;-88
2021/03/31 04:46:14;;;;;;;;;;;5.40;99.90;;;;;;13155822;22;19993;-88
2021/03/31 04:51:15;;;;;;;;;;;6.50;99.90;;;;;;13155618;22;20339;-88
2021/03/31 04:56:17;;;;;;;;;;;6.90;99.90;;;;;;13129347;22;19937;-88
2021/03/31 05:01:21;;;;;;;;;;;5.60;99.90;;;;;;13156741;22;19956;-88
2021/03/31 05:06:22;;;;;;;;;;;5.30;99.90;;;;;;13128748;22;19933;-88
2021/03/31 05:11:25;;;;;;;;;;;5.40;99.90;;;;;;13155878;22;20305;-88
2021/03/31 05:16:27;;;;;;;;;;;5.30;99.90;;;;;;13156272;22;19993;-88
2021/03/31 05:21:28;;;;;;;;;;;5.40;99.90;;;;;;13129843;22;19997;-88
2021/03/31 05:26:30;;;;;;;;;;;7.60;99.90;;;;;;13155732;22;19953;-88
2021/03/31 05:31:31;;;;;;;;;;;5.40;99.90;;;;;;13154681;22;19956;-88
2021/03/31 05:36:32;;;;;;;;;;;5.70;99.90;;;;;;13128609;22;19925;-88
2021/03/31 05:41:34;;;;;;;;;;;7.50;99.90;;;;;;13154562;22;20145;-88
2021/03/31 05:46:37;;;;;;;;;;;5.40;99.90;;;;;;13155740;22;20029;-88
2021/03/31 05:51:39;;;;;;;;;;;5.50;99.90;;;;;;13154907;22;20279;-89
2021/03/31 05:56:42;;;;;;;;;;;5.50;99.90;;;;;;13154557;22;20331;-89
2021/03/31 06:01:45;;;;;;;;;;;6.80;99.90;;;;;;13155217;22;19925;-89
2021/03/31 06:06:46;;;;;;;;;;;7.50;99.90;;;;;;13114518;22;19930;-88
2021/03/31 06:11:53;;;;;;;;;;;5.90;99.90;;;;;;13089646;22;19925;-88
2021/03/31 06:17:02;;;;;;;;;;;6.30;99.90;;;;;;13114641;22;19918;-88
2021/03/31 06:27:33;;;;;;;;;;;8.00;99.90;;;;;;13115744;22;20328;-88
2021/03/31 06:32:41;;;;;;;;;;;10.00;99.90;;;;;;13114455;22;20400;-88
2021/03/31 06:37:42;;;;;;;;;;;12.60;99.90;;;;;;13113126;22;19950;-88
2021/03/31 06:42:46;;;;;;;;;;;12.80;99.90;;;;;;13114824;22;19965;-88
2021/03/31 06:47:57;;;;;;;;;;;11.80;99.90;;;;;;13088110;22;19944;-88
2021/03/31 06:53:00;;;;;;;;;;;12.30;99.90;;;;;;13114033;22;19929;-88
2021/03/31 06:58:03;;;;;;;;;;;12.50;99.90;;;;;;13114646;22;19929;-89
2021/03/31 07:03:08;;;;;;;;;;;13.10;99.90;;;;;;13113005;22;20001;-89
2021/03/31 07:08:11;;;;;;;;;;;13.90;99.90;;;;;;13179703;22;20228;-88
2021/03/31 07:13:29;;;;;;;;;;;14.10;99.90;;;;;;13152611;22;19925;-88
2021/03/31 07:18:32;;;;;;;;;;;14.80;99.90;;;;;;13152665;22;20007;-88
2021/03/31 07:23:34;;;;;;;;;;;15.00;98.40;;;;;;13180811;22;20229;-88
2021/03/31 07:28:36;;;;;;;;;;;15.60;96.60;;;;;;13153170;22;19964;-88
2021/03/31 07:33:40;;;;;;;;;;;16.60;94.20;;;;;;13152650;22;19918;-88
2021/03/31 07:38:41;;;;;;;;;;;16.40;93.30;;;;;;13180670;22;19990;-88
2021/03/31 07:43:44;;;;;;;;;;;17.40;93.40;;;;;;13179668;22;20335;-88
2021/03/31 07:48:46;;;;;;;;;;;18.00;91.70;;;;;;13153242;22;20383;-88
2021/03/31 07:53:49;;;;;;;;;;;18.60;91.40;;;;;;13179387;22;19991;-88
2021/03/31 07:58:56;;;;;;;;;;;19.40;84.20;;;;;;13128719;22;19922;-88
2021/03/31 08:03:58;;;;;;;;;;;19.20;82.60;;;;;;13183306;22;20358;-88
2021/03/31 08:09:06;;;;;;;;;;;19.20;79.80;;;;;;13184044;22;20323;-88
2021/03/31 08:14:09;;;;;;;;;;;19.60;76.80;;;;;;13183941;22;19918;-88
2021/03/31 08:19:14;;;;;;;;;;;20.70;72.70;;;;;;13156939;22;19924;-88
2021/03/31 08:24:16;;;;;;;;;;;21.40;63.90;;;;;;13184362;22;20004;-88
2021/03/31 08:29:17;;;;;;;;;;;21.70;63.60;;;;;;13155693;22;20298;-88
2021/03/31 08:34:18;;;;;;;;;;;20.20;71.00;;;;;;13184378;22;19922;-88
2021/03/31 08:39:20;;;;;;;;;;;22.00;65.00;;;;;;13183473;22;20045;-88
2021/03/31 08:44:24;;;;;;;;;;;21.30;65.90;;;;;;13156068;22;19922;-88
2021/03/31 08:49:27;;;;;;;;;;;21.00;59.30;;;;;;13184780;22;20005;-88
2021/03/31 08:54:33;;;;;;;;;;;21.50;64.30;;;;;;13156237;22;19919;-88
2021/03/31 08:59:35;;;;;;;;;;;21.70;56.70;;;;;;13182973;22;20399;-88
2021/03/31 09:04:37;;;;;;;;;;;22.10;59.40;;;;;;13155164;22;19922;-88
2021/03/31 09:09:40;;;;;;;;;;;22.60;57.20;;;;;;13155846;22;19923;-88
2021/03/31 09:14:48;;;;;;;;;;;22.50;56.10;;;;;;13156333;22;19922;-88
2021/03/31 09:19:50;;;;;;;;;;;22.80;55.20;;;;;;13182667;22;20328;-88
2021/03/31 09:24:57;;;;;;;;;;;23.10;54.10;;;;;;13154542;22;20362;-88
2021/03/31 09:30:01;;;;;;;;;;;23.10;54.40;;;;;;13182101;22;20423;-88
2021/03/31 09:35:14;;;;;;;;;;;24.10;52.40;;;;;;13154787;22;19993;-87
2021/03/31 09:40:25;;;;;;;;;;;24.00;51.20;;;;;;13155694;22;19968;-87
2021/03/31 09:45:34;;;;;;;;;;;23.60;53.00;;;;;;13154953;22;19922;-88
2021/03/31 09:50:35;;;;;;;;;;;24.10;53.00;;;;;;13182157;22;20262;-88
2021/03/31 09:55:37;;;;;;;;;;;24.10;49.50;;;;;;13128254;22;20250;-87
2021/03/31 10:00:40;;;;;;;;;;;24.70;50.40;;;;;;13182387;22;19941;-87
2021/03/31 10:05:42;;;;;;;;;;;24.00;51.40;;;;;;13154274;22;19925;-87
2021/03/31 10:10:44;;;;;;;;;;;25.00;52.30;;;;;;13155752;22;19925;-87
2021/03/31 10:15:56;;;;;;;;;;;25.30;49.40;;;;;;13198347;22;19922;-90
2021/03/31 10:21:02;;;;;;;;;;;25.70;48.70;;;;;;13175427;22;20292;-91
2021/03/31 10:26:22;;;;;;;;;;;24.70;48.80;;;;;;13183762;22;20366;-90
2021/03/31 10:31:33;;;;;;;;;;;26.10;47.90;;;;;;13158277;22;19918;-91
2021/03/31 10:47:18;;;;;;;;;;;26.60;42.90;;;;;;13183331;22;20339;-90
2021/03/31 10:52:25;;;;;;;;;;;25.40;43.80;;;;;;13155936;22;19918;-91
2021/03/31 10:57:27;;;;;;;;;;;25.00;42.80;;;;;;13131809;22;19919;-90
2021/03/31 11:02:28;;;;;;;;;;;24.80;45.90;;;;;;13156571;22;19918;-90
2021/03/31 11:07:30;;;;;;;;;;;24.20;44.60;;;;;;13116048;22;20286;-91
2021/03/31 11:12:31;;;;;;;;;;;25.60;44.60;;;;;;13116079;22;20344;-90
2021/03/31 11:17:51;;;;;;;;;;;26.00;44.60;;;;;;13116675;22;20348;-90
2021/03/31 11:28:13;;;;;;;;;;;24.70;41.30;;;;;;13115935;22;19981;-89
2021/03/31 11:33:26;;;;;;;;;;;24.60;40.30;;;;;;13116784;22;19922;-89
2021/03/31 11:38:27;;;;;;;;;;;24.90;38.90;;;;;;13116257;22;19926;-90
2021/03/31 11:43:29;;;;;;;;;;;24.60;38.10;;;;;;13117722;22;19922;-89
2021/03/31 11:48:32;;;;;;;;;;;25.20;39.40;;;;;;13116775;22;19953;-90
2021/03/31 11:53:34;;;;;;;;;;;25.10;37.50;;;;;;13088386;22;19923;-87
2021/03/31 11:58:36;;;;;;;;;;;25.00;38.50;;;;;;13115456;22;19924;-87
2021/03/31 12:03:37;;;;;;;;;;;25.00;37.10;;;;;;13124773;22;19922;-86
2021/03/31 12:08:47;;;;;;;;;;;24.70;37.20;;;;;;13126120;22;19949;-87
2021/03/31 12:13:48;;;;;;;;;;;25.50;38.80;;;;;;13155204;22;19918;-87
2021/03/31 12:18:50;;;;;;;;;;;25.00;38.40;;;;;;13152631;22;19926;-87
2021/03/31 12:23:51;;;;;;;;;;;25.40;37.40;;;;;;13125954;22;19925;-87
2021/03/31 12:28:57;;;;;;;;;;;25.50;35.80;;;;;;13152541;22;19985;-87
2021/03/31 12:33:59;;;;;;;;;;;26.20;36.20;;;;;;13126984;22;19922;-87
2021/03/31 12:39:00;;;;;;;;;;;26.80;37.50;;;;;;13180921;22;19997;-88
2021/03/31 12:44:01;;;;;;;;;;;26.40;36.40;;;;;;13154204;22;19946;-89
2021/03/31 12:49:04;;;;;;;;;;;26.30;38.80;;;;;;13160332;22;19919;-94
2021/03/31 12:59:09;;;;;;;;;;;26.60;39.40;;;;;;13159193;22;19937;-91
2021/03/31 13:04:30;;;;;;;;;;;26.50;40.60;;;;;;13140416;22;19918;-91
2021/03/31 13:09:32;;;;;;;;;;;26.50;38.60;;;;;;13157785;22;20259;-91
2021/03/31 13:36:20;;;;;;;;;;;26.90;39.20;;;;;;13185845;22;19922;-93
2021/03/31 13:41:22;;;;;;;;;;;26.70;39.10;;;;;;13135540;22;19918;-93
2021/03/31 13:46:23;;;;;;;;;;;26.20;38.70;;;;;;13185834;22;19950;-93
2021/03/31 13:51:56;;;;;;;;;;;26.70;40.30;;;;;;13161673;22;20362;-91
2021/03/31 13:57:05;;;;;;;;;;;26.70;38.20;;;;;;13185531;22;19946;-92
2021/03/31 14:02:06;;;;;;;;;;;26.40;39.50;;;;;;13132637;22;19954;-93
2021/03/31 14:07:27;;;;;;;;;;;26.50;39.70;;;;;;13139562;22;19926;-89
2021/03/31 14:12:51;;;;;;;;;;;26.40;37.90;;;;;;13139330;22;19925;-90
2021/03/31 14:17:52;;;;;;;;;;;26.50;39.20;;;;;;13156420;22;20338;-95
2021/03/31 14:22:54;;;;;;;;;;;26.30;35.70;;;;;;13158553;22;19958;-95
2021/03/31 14:27:55;;;;;;;;;;;26.20;37.10;;;;;;13132841;22;19973;-95
2021/03/31 14:33:16;;;;;;;;;;;26.10;37.30;;;;;;13165343;22;19918;-94
2021/03/31 14:38:37;;;;;;;;;;;26.10;37.50;;;;;;13162583;22;19919;-94
2021/03/31 14:43:59;;;;;;;;;;;26.00;37.80;;;;;;13161977;22;19922;-91
2021/03/31 14:49:01;;;;;;;;;;;26.20;39.40;;;;;;13184280;22;19918;-93
2021/03/31 15:04:57;;;;;;;;;;;25.60;39.20;;;;;;13113677;22;20269;-94
2021/03/31 15:09:59;;;;;;;;;;;25.60;41.20;;;;;;13130906;22;19971;-94
2021/03/31 15:15:00;;;;;;;;;;;25.40;41.30;;;;;;13130009;22;20291;-92
2021/03/31 15:20:43;;;;;;;;;;;25.20;40.30;;;;;;13137632;22;19922;-92
2021/03/31 15:26:05;;;;;;;;;;;25.40;40.90;;;;;;13141240;22;19918;-89
2021/03/31 15:31:06;;;;;;;;;;;25.00;42.10;;;;;;13131830;22;19925;-91
2021/03/31 15:36:08;;;;;;;;;;;24.80;39.90;;;;;;13156307;22;19989;-91
2021/03/31 15:41:09;;;;;;;;;;;24.80;43.10;;;;;;13156156;22;19945;-91
2021/03/31 15:46:11;;;;;;;;;;;24.70;41.70;;;;;;13155082;22;19957;-91
2021/03/31 15:51:12;;;;;;;;;;;24.90;41.40;;;;;;13130135;22;19926;-93
2021/03/31 15:56:19;;;;;;;;;;;24.70;42.90;;;;;;13157424;22;19963;-92
2021/03/31 16:01:21;;;;;;;;;;;24.60;42.40;;;;;;13154132;22;19919;-93
2021/03/31 16:07:31;;;;;;;;;;;24.50;42.50;;;;;;13155612;22;19989;-92
2021/03/31 16:11:48;;;;;;;;;;;23.90;45.10;;;;;;13162490;22;19989;-91
2021/03/31 16:16:49;;;;;;;;;;;24.00;45.00;;;;;;13129870;22;19941;-91
2021/03/31 16:21:56;;;;;;;;;;;23.80;45.40;;;;;;13134785;22;19918;-92
2021/03/31 16:27:02;;;;;;;;;;;23.60;46.30;;;;;;13136266;22;19993;-91
2021/03/31 16:32:08;;;;;;;;;;;23.20;48.20;;;;;;13160562;22;20239;-91
2021/03/31 16:37:09;;;;;;;;;;;23.10;47.80;;;;;;13159715;22;19946;-91
2021/03/31 16:42:15;;;;;;;;;;;23.00;48.80;;;;;;13160767;22;19997;-92
2021/03/31 16:47:21;;;;;;;;;;;22.70;49.50;;;;;;13159668;22;19992;-90
2021/03/31 16:52:25;;;;;;;;;;;22.50;50.00;;;;;;13133359;22;20228;-91
2021/03/31 16:57:26;;;;;;;;;;;22.20;49.80;;;;;;13133186;22;20001;-92
2021/03/31 17:02:27;;;;;;;;;;;22.10;50.30;;;;;;13133808;22;20003;-92
2021/03/31 17:07:29;;;;;;;;;;;21.90;51.50;;;;;;13132530;22;19957;-90
2021/03/31 17:12:30;;;;;;;;;;;21.60;52.00;;;;;;13157137;22;19997;-89
2021/03/31 17:17:31;;;;;;;;;;;21.40;58.40;;;;;;13157869;22;19925;-91
2021/03/31 17:22:33;;;;;;;;;;;21.20;51.80;;;;;;13154112;22;19958;-90
2021/03/31 17:27:37;;;;;;;;;;;21.10;51.60;;;;;;13185408;22;19925;-90
2021/03/31 17:32:49;;;;;;;;;;;20.80;52.40;;;;;;13157772;22;19945;-85
2021/03/31 17:38:00;;;;;;;;;;;20.50;52.30;;;;;;13185210;22;19961;-84
2021/03/31 17:43:06;;;;;;;;;;;20.20;54.10;;;;;;13158988;22;19996;-84
2021/03/31 17:48:07;;;;;;;;;;;19.90;55.10;;;;;;13157799;22;19922;-84
2021/03/31 17:53:16;;;;;;;;;;;19.60;56.20;;;;;;13158689;22;19925;-84
2021/03/31 17:58:18;;;;;;;;;;;19.30;59.20;;;;;;13157275;22;19990;-87
2021/03/31 18:03:24;;;;;;;;;;;18.90;60.60;;;;;;13183815;22;19910;-86
2021/03/31 18:08:30;;;;;;;;;;;18.80;58.20;;;;;;13184724;22;19922;-86
2021/03/31 18:13:37;;;;;;;;;;;18.60;59.50;;;;;;13178949;22;19919;-86
2021/03/31 18:18:43;;;;;;;;;;;18.20;63.70;;;;;;13180661;22;20283;-86
2021/03/31 18:23:49;;;;;;;;;;;17.50;65.40;;;;;;13180774;22;19928;-85
2021/03/31 18:28:55;;;;;;;;;;;17.40;67.50;;;;;;13154910;22;19924;-85
2021/03/31 18:34:01;;;;;;;;;;;17.40;69.00;;;;;;13179487;22;19925;-85
2021/03/31 18:39:08;;;;;;;;;;;17.10;67.80;;;;;;13180965;22;20430;-85
2021/03/31 18:44:09;;;;;;;;;;;16.90;70.60;;;;;;13178925;22;19954;-85
2021/03/31 18:49:15;;;;;;;;;;;16.70;69.80;;;;;;13179376;22;19993;-85
2021/03/31 18:54:16;;;;;;;;;;;16.50;71.90;;;;;;13181539;22;19993;-85
2021/03/31 18:59:22;;;;;;;;;;;16.40;72.10;;;;;;13181473;22;19919;-85
2021/03/31 19:04:28;;;;;;;;;;;16.50;69.80;;;;;;13153633;22;19923;-85
2021/03/31 19:14:57;;;;;;;;;;;16.40;75.70;;;;;;13179469;22;20374;-85
2021/03/31 19:20:05;;;;;;;;;;;16.30;80.80;;;;;;13154792;22;19924;-85
2021/03/31 19:25:06;;;;;;;;;;;16.00;85.30;;;;;;13179111;22;20006;-85
2021/03/31 19:30:12;;;;;;;;;;;15.80;84.60;;;;;;13180524;22;19918;-85
2021/03/31 19:35:19;;;;;;;;;;;15.30;91.00;;;;;;13180945;22;19938;-85
2021/03/31 19:40:26;;;;;;;;;;;15.20;91.00;;;;;;13179814;22;19944;-85
2021/03/31 19:45:29;;;;;;;;;;;15.10;92.50;;;;;;13178801;22;19919;-85
2021/03/31 19:50:40;;;;;;;;;;;15.00;94.60;;;;;;13179813;22;19918;-85
2021/03/31 19:55:42;;;;;;;;;;;15.00;92.00;;;;;;13183527;22;19937;-85
2021/03/31 20:00:49;;;;;;;;;;;14.80;93.80;;;;;;13185347;22;19922;-85
2021/03/31 20:05:55;;;;;;;;;;;14.70;93.80;;;;;;13182583;22;19999;-85
2021/03/31 20:11:02;;;;;;;;;;;14.50;94.40;;;;;;13184231;22;19929;-85
2021/03/31 20:16:09;;;;;;;;;;;14.50;93.60;;;;;;13184715;22;19993;-85
2021/03/31 20:21:15;;;;;;;;;;;14.60;94.00;;;;;;13157320;22;19990;-85
2021/03/31 20:26:17;;;;;;;;;;;14.50;94.90;;;;;;13181871;22;20339;-85
2021/03/31 20:31:24;;;;;;;;;;;14.30;95.50;;;;;;13182440;22;19992;-85
2021/03/31 20:36:30;;;;;;;;;;;14.30;95.00;;;;;;13182928;22;19964;-85
2021/03/31 20:41:37;;;;;;;;;;;14.30;95.70;;;;;;13181514;22;19922;-85
2021/03/31 20:46:43;;;;;;;;;;;14.20;96.70;;;;;;13183558;22;19918;-85
2021/03/31 20:51:44;;;;;;;;;;;14.20;96.50;;;;;;13182451;22;20009;-85
2021/03/31 20:56:50;;;;;;;;;;;14.30;96.20;;;;;;13157235;22;19922;-85
2021/03/31 21:01:59;;;;;;;;;;;14.10;96.80;;;;;;13181488;22;19925;-85
2021/03/31 21:07:05;;;;;;;;;;;13.90;97.20;;;;;;13181316;22;20284;-85
2021/03/31 21:12:11;;;;;;;;;;;13.80;97.60;;;;;;13182803;22;20346;-85
2021/03/31 21:17:21;;;;;;;;;;;13.70;98.10;;;;;;13182445;22;20402;-85
2021/03/31 21:22:28;;;;;;;;;;;13.70;96.90;;;;;;13182481;22;19997;-85
2021/03/31 21:27:34;;;;;;;;;;;13.50;99.20;;;;;;13183484;22;19918;-85
2021/03/31 21:32:35;;;;;;;;;;;13.40;97.80;;;;;;13155395;22;19989;-85
2021/03/31 21:37:41;;;;;;;;;;;13.40;98.30;;;;;;13180962;22;20309;-85
2021/03/31 21:42:47;;;;;;;;;;;13.20;98.10;;;;;;13181413;22;19919;-86
2021/03/31 21:47:53;;;;;;;;;;;13.10;99.00;;;;;;13183014;22;19922;-85
2021/03/31 21:52:54;;;;;;;;;;;13.10;98.70;;;;;;13180443;22;19946;-85
2021/03/31 21:57:56;;;;;;;;;;;13.00;99.90;;;;;;13182569;22;19957;-86
2021/03/31 22:02:57;;;;;;;;;;;13.00;99.70;;;;;;13182284;22;19968;-85
2021/03/31 22:07:59;;;;;;;;;;;12.80;99.90;;;;;;13180251;22;19954;-86
2021/03/31 22:13:01;;;;;;;;;;;12.70;99.90;;;;;;13180248;22;19924;-85
2021/03/31 22:18:02;;;;;;;;;;;12.70;99.90;;;;;;13180280;22;19918;-85
2021/03/31 22:23:04;;;;;;;;;;;12.60;99.20;;;;;;13182200;22;19957;-85
2021/03/31 22:28:06;;;;;;;;;;;12.80;99.50;;;;;;13180372;22;19926;-85
2021/03/31 22:33:08;;;;;;;;;;;12.80;97.90;;;;;;13182014;22;19918;-85
2021/03/31 22:38:10;;;;;;;;;;;12.60;99.60;;;;;;13179374;22;19973;-85
2021/03/31 22:43:13;;;;;;;;;;;12.70;99.80;;;;;;13180128;22;19918;-85
2021/03/31 22:48:15;;;;;;;;;;;12.70;99.30;;;;;;13181622;22;20014;-85
2021/03/31 22:53:23;;;;;;;;;;;12.90;99.60;;;;;;13181659;22;19918;-86
2021/03/31 22:58:29;;;;;;;;;;;12.70;99.80;;;;;;13179974;22;19933;-86
2021/03/31 23:03:33;;;;;;;;;;;12.90;99.70;;;;;;13178345;22;19926;-85
2021/03/31 23:08:35;;;;;;;;;;;12.90;99.00;;;;;;13153623;22;19942;-86
2021/03/31 23:13:36;;;;;;;;;;;12.80;99.90;;;;;;13179695;22;19918;-86
2021/03/31 23:18:37;;;;;;;;;;;12.70;99.90;;;;;;13179488;22;19918;-86
2021/03/31 23:23:39;;;;;;;;;;;12.60;99.90;;;;;;13179452;22;19926;-86
2021/03/31 23:28:41;;;;;;;;;;;12.50;99.90;;;;;;13180672;22;19922;-86
2021/03/31 23:33:43;;;;;;;;;;;12.50;99.90;;;;;;13180881;22;19949;-86
2021/03/31 23:38:44;;;;;;;;;;;12.40;99.90;;;;;;13152427;22;20340;-86
2021/03/31 23:43:46;;;;;;;;;;;12.30;99.90;;;;;;13179236;22;19998;-86
2021/03/31 23:48:47;;;;;;;;;;;12.30;99.90;;;;;;13178477;22;20335;-86
2021/03/31 23:53:48;;;;;;;;;;;12.10;99.90;;;;;;13152334;22;20369;-86
2021/03/31 23:58:49;;;;;;;;;;;12.20;99.90;;;;;;13178659;22;19922;-86
